Lindsey — WDC3699 — position and weather

sailwx.info

Track history (hours):
 
Tides and Currents Weather Stations Pressure Air Temp Water Temp Dewpoint Dewpoint Depression Visibility Wind Speed Wind Dir Waves Ship Positions

Lindsey

Owner: Wilmington Tug, Inc., New Castle, DE. More information available from US FCC via Universal Licensing System and Coast Guard Vessel Documentation Center.

Last reported at 2017-Sep-21 05:00 UTC. Time now 2017-Sep-21 05:08 UTC.
Position N 39°43' W 075°31'.

Length 20 m; draft 3.9 m.

Type: Tug. MMSI: 367012640.

Date/timePositionNaut miles runAvg speedWind from/ knotsBaromVisibWave heightAir tempDewpointWater temp
2017-Sep-21 05:00N 39°43' W 075°31'0 0.0
2017-Sep-21 04:31N 39°43' W 075°31'0 0.0
2017-Sep-21 04:01N 39°43' W 075°31'0 0.0
2017-Sep-21 03:31N 39°43' W 075°31'0 0.0
2017-Sep-21 03:01N 39°43' W 075°31'0 0.0
2017-Sep-21 02:31N 39°43' W 075°31'0 0.0
2017-Sep-21 02:01N 39°43' W 075°31'0 0.0
2017-Sep-21 01:30N 39°43' W 075°31'0 1.0
2017-Sep-21 01:01N 39°43' W 075°31'611.6
2017-Sep-21 00:31N 39°38' W 075°36'3 5.8
2017-Sep-21 00:00N 39°35' W 075°36'0 0.0
2017-Sep-20 23:30N 39°35' W 075°36'0 0.3
2017-Sep-20 23:01N 39°35' W 075°35'0 0.1
2017-Sep-20 22:31N 39°35' W 075°35'0 0.0
2017-Sep-20 22:01N 39°35' W 075°35'0 0.0
2017-Sep-20 21:31N 39°35' W 075°35'0 0.0
2017-Sep-20 21:00N 39°35' W 075°35'0 0.0
2017-Sep-20 20:31N 39°35' W 075°35'0 0.0
2017-Sep-20 20:01N 39°35' W 075°35'0 0.0
2017-Sep-20 19:31N 39°35' W 075°35'0 0.0
2017-Sep-20 19:01N 39°35' W 075°35'0 0.0
2017-Sep-20 18:30N 39°35' W 075°35'0 0.0
2017-Sep-20 18:00N 39°35' W 075°35'1 2.9
2017-Sep-20 17:31N 39°34' W 075°34'1 1.2
2017-Sep-20 17:00N 39°35' W 075°33'3 5.9
2017-Sep-20 16:31N 39°38' W 075°35'3 5.2
2017-Sep-20 16:01N 39°39' W 075°33'3 6.0
2017-Sep-20 15:31N 39°42' W 075°31'1 1.7
2017-Sep-20 15:00N 39°43' W 075°31'0 0.0
2017-Sep-20 14:01N 39°43' W 075°31'0 0.0
2017-Sep-20 13:31N 39°43' W 075°31'0 0.0
2017-Sep-20 13:01N 39°43' W 075°31'0 0.0
2017-Sep-20 12:30N 39°43' W 075°31'0 0.0
2017-Sep-20 12:00N 39°43' W 075°31'0 0.0
2017-Sep-20 11:30N 39°43' W 075°31'0 0.0
2017-Sep-20 11:01N 39°43' W 075°31'0 0.0
2017-Sep-20 10:31N 39°43' W 075°31'0 0.0
2017-Sep-20 10:00N 39°43' W 075°31'0 0.0
2017-Sep-20 09:31N 39°43' W 075°31'0 0.0
2017-Sep-20 09:01N 39°43' W 075°31'0 0.0
2017-Sep-20 08:30N 39°43' W 075°31'0 0.0
2017-Sep-20 08:00N 39°43' W 075°31'0 0.0
2017-Sep-20 07:30N 39°43' W 075°31'0 0.0
2017-Sep-20 07:01N 39°43' W 075°31'0 0.0
2017-Sep-20 06:30N 39°43' W 075°31'0 0.4
2017-Sep-20 06:01N 39°43' W 075°31'1 1.8
2017-Sep-20 05:30N 39°42' W 075°31'0 0.8
2017-Sep-20 05:01N 39°43' W 075°30'1 1.7
2017-Sep-20 04:30N 39°43' W 075°31'0 0.0
2017-Sep-20 04:01N 39°43' W 075°31'0 0.0
2017-Sep-20 03:31N 39°43' W 075°31'0 0.0
2017-Sep-20 03:01N 39°43' W 075°31'0 0.0
2017-Sep-20 02:31N 39°43' W 075°31'0 0.0
2017-Sep-20 02:01N 39°43' W 075°31'1 1.7
2017-Sep-20 01:30N 39°43' W 075°31'1 1.4
2017-Sep-20 01:01N 39°43' W 075°31'0 0.3
2017-Sep-20 00:31N 39°43' W 075°31'0 0.0
2017-Sep-20 00:01N 39°43' W 075°31'0 0.0
2017-Sep-19 23:30N 39°43' W 075°31'0 0.0
2017-Sep-19 23:01N 39°43' W 075°31'0 0.0
2017-Sep-19 22:31N 39°43' W 075°31'0 0.0
2017-Sep-19 22:00N 39°43' W 075°31'0 0.0
2017-Sep-19 21:31N 39°43' W 075°31'0 0.0
2017-Sep-19 21:00N 39°43' W 075°31'0 0.0
2017-Sep-19 20:31N 39°43' W 075°31'0 0.0
2017-Sep-19 20:00N 39°43' W 075°31'0 0.0
2017-Sep-19 19:31N 39°43' W 075°31'0 0.0
2017-Sep-19 19:00N 39°43' W 075°31'0 0.0
2017-Sep-19 18:31N 39°43' W 075°31'0 0.0
2017-Sep-19 18:00N 39°43' W 075°31'0 0.0
2017-Sep-19 17:30N 39°43' W 075°31'0 0.0
2017-Sep-19 17:01N 39°43' W 075°31'0 0.0
2017-Sep-19 16:30N 39°43' W 075°31'0 0.0
2017-Sep-19 16:01N 39°43' W 075°31'0 0.0
2017-Sep-19 15:30N 39°43' W 075°31'3 5.1
2017-Sep-19 15:00N 39°41' W 075°32'611.9
2017-Sep-19 14:31N 39°35' W 075°33'2 3.3
2017-Sep-19 14:01N 39°35' W 075°35'0 0.3
2017-Sep-19 13:31N 39°35' W 075°35'0 0.6
2017-Sep-19 13:01N 39°35' W 075°36'0 0.0
2017-Sep-19 12:31N 39°35' W 075°36'0 0.0
2017-Sep-19 12:01N 39°35' W 075°36'0 0.0
2017-Sep-19 11:31N 39°35' W 075°36'0 0.0
2017-Sep-19 11:01N 39°35' W 075°36'0 0.0
2017-Sep-19 10:31N 39°35' W 075°36'0 0.0
2017-Sep-19 10:00N 39°35' W 075°36'0 0.0
2017-Sep-19 09:31N 39°35' W 075°36'0 0.0
2017-Sep-19 09:00N 39°35' W 075°36'0 0.0
2017-Sep-19 08:30N 39°35' W 075°36'0 0.0
2017-Sep-19 08:00N 39°35' W 075°36'0 0.6
2017-Sep-19 07:30N 39°35' W 075°35'0 0.0
2017-Sep-19 07:01N 39°35' W 075°35'0 0.3
2017-Sep-19 06:31N 39°35' W 075°35'0 0.0
2017-Sep-19 06:00N 39°35' W 075°35'0 0.3
2017-Sep-19 05:30N 39°35' W 075°36'0 0.0
2017-Sep-19 05:00N 39°35' W 075°36'0 0.0
2017-Sep-19 04:30N 39°35' W 075°36'0 0.0
2017-Sep-19 04:00N 39°35' W 075°36'0 0.9
2017-Sep-19 03:30N 39°36' W 075°36'5 9.4
2017-Sep-19 03:00N 39°40' W 075°33'5 9.9
2017-Sep-19 02:31N 39°44' W 075°30'5 9.4
2017-Sep-19 02:00N 39°48' W 075°26'3 6.4
2017-Sep-19 01:31N 39°50' W 075°23'5 9.0
2017-Sep-19 01:00N 39°51' W 075°17'5 9.6
2017-Sep-19 00:31N 39°53' W 075°12'0 0.2
2017-Sep-19 00:00N 39°53' W 075°12'0 0.0
2017-Sep-18 23:30N 39°53' W 075°12'0 0.0
2017-Sep-18 23:00N 39°53' W 075°12'0 0.0
2017-Sep-18 22:31N 39°53' W 075°12'0 0.1
2017-Sep-18 22:00N 39°54' W 075°12'1 1.2
2017-Sep-18 21:30N 39°53' W 075°11'4 8.1
2017-Sep-18 21:01N 39°56' W 075°08'510.2
2017-Sep-18 20:30N 39°60' W 075°03'5 9.9
2017-Sep-18 20:00N 40°03' W 074°58'510.3
2017-Sep-18 19:30N 40°05' W 074°52'4 7.6
2017-Sep-18 19:00N 40°08' W 074°49'3 2.5
2017-Sep-18 17:53N 40°08' W 074°45'3 8.5
2017-Sep-18 17:30N 40°08' W 074°49'5 9.3
2017-Sep-18 17:00N 40°04' W 074°54'5 9.4
2017-Sep-18 16:30N 40°02' W 074°59'611.9
2017-Sep-18 16:01N 39°59' W 075°05'4 8.9
2017-Sep-18 15:30N 39°55' W 075°08'3 5.8
2017-Sep-18 15:00N 39°53' W 075°11'0 0.0
2017-Sep-18 14:31N 39°53' W 075°11'0 0.0
2017-Sep-18 14:00N 39°53' W 075°11'0 0.0
2017-Sep-18 13:30N 39°53' W 075°11'0 0.0
2017-Sep-18 13:01N 39°53' W 075°11'0 0.0
2017-Sep-18 12:30N 39°53' W 075°11'0 0.0
2017-Sep-18 12:00N 39°53' W 075°11'0 0.0
2017-Sep-18 11:30N 39°53' W 075°11'0 0.0
2017-Sep-18 11:00N 39°53' W 075°11'0 0.0
2017-Sep-18 10:30N 39°53' W 075°11'0 0.4
2017-Sep-18 10:01N 39°53' W 075°11'0 0.4
2017-Sep-18 09:30N 39°53' W 075°11'0 0.0
2017-Sep-18 09:00N 39°53' W 075°11'0 0.0
2017-Sep-18 08:30N 39°53' W 075°11'0 0.0
2017-Sep-18 08:00N 39°53' W 075°11'0 0.0
2017-Sep-18 07:30N 39°53' W 075°11'0 0.0
2017-Sep-18 07:00N 39°53' W 075°11'0 0.0
2017-Sep-18 06:30N 39°53' W 075°11'0 0.0
2017-Sep-18 06:00N 39°53' W 075°11'0 0.0
2017-Sep-18 05:30N 39°53' W 075°11'0 0.0
2017-Sep-18 05:00N 39°53' W 075°11'0 0.0
2017-Sep-18 04:30N 39°53' W 075°11'0 0.0
2017-Sep-18 04:00N 39°53' W 075°11'0 0.0
2017-Sep-18 03:30N 39°53' W 075°11'0 0.0
2017-Sep-18 03:00N 39°53' W 075°11'4 8.2
2017-Sep-18 02:31N 39°51' W 075°16'612.0
2017-Sep-18 02:00N 39°49' W 075°23'2 3.3
2017-Sep-18 01:30N 39°48' W 075°25'0 0.0
2017-Sep-18 01:00N 39°48' W 075°25'0 0.4
2017-Sep-18 00:31N 39°48' W 075°25'1 2.7
2017-Sep-18 00:00N 39°48' W 075°27'1 1.5
2017-Sep-17 23:31N 39°48' W 075°26'0 0.0
2017-Sep-17 23:00N 39°48' W 075°26'0 0.0
2017-Sep-17 22:30N 39°48' W 075°26'2 3.6
2017-Sep-17 22:00N 39°49' W 075°24'612.2
2017-Sep-17 21:30N 39°51' W 075°16'611.3
2017-Sep-17 21:00N 39°53' W 075°09'5 9.6
2017-Sep-17 20:30N 39°58' W 075°08'3 6.2
2017-Sep-17 20:00N 39°59' W 075°04'1 2.0
2017-Sep-17 19:30N 39°59' W 075°05'0 0.0
2017-Sep-17 19:00N 39°59' W 075°05'0 0.0
2017-Sep-17 18:30N 39°59' W 075°05'0 0.0
2017-Sep-17 18:00N 39°59' W 075°05'0 0.0
2017-Sep-17 17:30N 39°59' W 075°05'2 3.9
2017-Sep-17 17:00N 39°58' W 075°08'4 8.3
2017-Sep-17 16:30N 39°54' W 075°08'3 6.6
2017-Sep-17 16:00N 39°52' W 075°12'5 9.7
2017-Sep-17 15:30N 39°51' W 075°18'612.0
2017-Sep-17 15:00N 39°48' W 075°25'611.6
2017-Sep-17 14:30N 39°44' W 075°30'1 2.1
2017-Sep-17 14:00N 39°43' W 075°31'0 0.0
2017-Sep-17 13:31N 39°43' W 075°31'0 0.0
2017-Sep-17 13:00N 39°43' W 075°31'0 0.0
2017-Sep-17 12:31N 39°43' W 075°31'0 0.0
2017-Sep-17 12:00N 39°43' W 075°31'0 0.0
2017-Sep-17 11:30N 39°43' W 075°31'0 0.0
2017-Sep-17 11:01N 39°43' W 075°31'0 0.0
2017-Sep-17 10:30N 39°43' W 075°31'0 0.0
2017-Sep-17 10:00N 39°43' W 075°31'0 0.0
2017-Sep-17 09:30N 39°43' W 075°31'0 0.0
2017-Sep-17 09:00N 39°43' W 075°31'0 0.0
2017-Sep-17 08:30N 39°43' W 075°31'0 0.0
2017-Sep-17 08:00N 39°43' W 075°31'0 0.0
2017-Sep-17 07:30N 39°43' W 075°31'0 0.0
2017-Sep-17 07:00N 39°43' W 075°31'0 0.0
2017-Sep-17 06:31N 39°43' W 075°31'0 0.0
2017-Sep-17 06:01N 39°43' W 075°31'0 0.0
2017-Sep-17 05:31N 39°43' W 075°31'0 0.0
2017-Sep-17 05:00N 39°43' W 075°31'0 0.0
2017-Sep-17 04:31N 39°43' W 075°31'0 0.0
2017-Sep-17 04:00N 39°43' W 075°31'0 0.0
2017-Sep-17 03:30N 39°43' W 075°31'0 0.0
2017-Sep-17 03:00N 39°43' W 075°31'0 0.0
2017-Sep-17 02:31N 39°43' W 075°31'0 0.0
2017-Sep-17 02:01N 39°43' W 075°31'0 0.0
2017-Sep-17 01:30N 39°43' W 075°31'0 0.0
2017-Sep-17 01:01N 39°43' W 075°31'0 0.0
2017-Sep-17 00:30N 39°43' W 075°31'0 0.0
2017-Sep-17 00:00N 39°43' W 075°31'0 0.0
2017-Sep-16 23:30N 39°43' W 075°31'0 0.0
2017-Sep-16 23:00N 39°43' W 075°31'0 0.0
2017-Sep-16 22:30N 39°43' W 075°31'0 0.0
2017-Sep-16 22:00N 39°43' W 075°31'0 0.0
2017-Sep-16 21:30N 39°43' W 075°31'0 0.0
2017-Sep-16 21:00N 39°43' W 075°31'0 0.0
2017-Sep-16 20:30N 39°43' W 075°31'2 3.7
2017-Sep-16 20:00N 39°45' W 075°30'510.7
2017-Sep-16 19:31N 39°48' W 075°25'0 0.3
2017-Sep-16 19:01N 39°48' W 075°25'0 0.4
2017-Sep-16 18:31N 39°48' W 075°25'0 0.3
2017-Sep-16 18:00N 39°48' W 075°24'2 3.9
2017-Sep-16 17:30N 39°47' W 075°27'5 9.4
2017-Sep-16 17:01N 39°44' W 075°30'5 9.9
2017-Sep-16 16:31N 39°39' W 075°33'4 8.6
2017-Sep-16 16:01N 39°36' W 075°36'1 1.3
2017-Sep-16 15:31N 39°35' W 075°35'0 0.1
2017-Sep-16 15:00N 39°35' W 075°35'2 3.1
2017-Sep-16 14:31N 39°34' W 075°34'1 1.6
2017-Sep-16 14:00N 39°35' W 075°33'1 2.8
2017-Sep-16 13:30N 39°34' W 075°33'2 4.9
2017-Sep-16 13:00N 39°35' W 075°35'0 0.4
2017-Sep-16 12:30N 39°35' W 075°35'0 0.2
2017-Sep-16 12:01N 39°35' W 075°35'0 0.0
2017-Sep-16 11:30N 39°35' W 075°35'0 0.0
2017-Sep-16 11:00N 39°35' W 075°35'0 0.0
2017-Sep-16 10:31N 39°35' W 075°35'0 0.0
2017-Sep-16 10:00N 39°35' W 075°35'0 0.0
2017-Sep-16 09:30N 39°35' W 075°35'0 0.0
2017-Sep-16 09:01N 39°35' W 075°35'0 0.0
2017-Sep-16 08:30N 39°35' W 075°35'0 0.0
2017-Sep-16 08:00N 39°35' W 075°35'0 0.0
2017-Sep-16 07:31N 39°35' W 075°35'0 0.0
2017-Sep-16 07:01N 39°35' W 075°35'0 0.0
2017-Sep-16 06:30N 39°35' W 075°35'0 0.0
2017-Sep-16 06:01N 39°35' W 075°35'0 0.0
2017-Sep-16 05:31N 39°35' W 075°35'0 0.0
2017-Sep-16 05:01N 39°35' W 075°35'2 3.1
2017-Sep-16 04:31N 39°34' W 075°34'1 1.5
2017-Sep-16 04:01N 39°35' W 075°34'1 1.7
2017-Sep-16 03:31N 39°35' W 075°35'0 0.0
2017-Sep-16 03:00N 39°35' W 075°35'0 0.5
2017-Sep-16 02:30N 39°35' W 075°36'0 0.3
2017-Sep-16 02:00N 39°35' W 075°35'2 3.1
2017-Sep-16 01:30N 39°34' W 075°34'1 1.9
2017-Sep-16 01:00N 39°35' W 075°34'3 6.1
2017-Sep-16 00:30N 39°38' W 075°34'3 6.8
2017-Sep-16 00:01N 39°41' W 075°31'2 4.4
2017-Sep-15 23:31N 39°43' W 075°31'0 0.0
2017-Sep-15 23:00N 39°43' W 075°31'0 0.0
2017-Sep-15 22:31N 39°43' W 075°31'0 0.0
2017-Sep-15 22:01N 39°43' W 075°31'0 0.0
2017-Sep-15 21:31N 39°43' W 075°31'0 0.0
2017-Sep-15 21:01N 39°43' W 075°31'0 0.0
2017-Sep-15 20:31N 39°43' W 075°31'0 0.0
2017-Sep-15 20:01N 39°43' W 075°31'0 0.0
2017-Sep-15 19:31N 39°43' W 075°31'0 0.0
2017-Sep-15 19:01N 39°43' W 075°31'0 0.0
2017-Sep-15 18:31N 39°43' W 075°31'0 0.0
2017-Sep-15 18:01N 39°43' W 075°31'0 0.3
2017-Sep-15 17:31N 39°43' W 075°31'0 0.3
2017-Sep-15 17:01N 39°43' W 075°31'0 0.0
2017-Sep-15 16:31N 39°43' W 075°31'0 0.0
2017-Sep-15 16:01N 39°43' W 075°31'0 0.0
2017-Sep-15 15:30N 39°43' W 075°31'0 0.0
2017-Sep-15 15:00N 39°43' W 075°31'0 0.0
2017-Sep-15 14:30N 39°43' W 075°31'0 0.0
2017-Sep-15 14:00N 39°43' W 075°31'0 0.0
2017-Sep-15 13:31N 39°43' W 075°31'0 0.0
2017-Sep-15 13:00N 39°43' W 075°31'0 0.0
2017-Sep-15 12:30N 39°43' W 075°31'0 0.0
2017-Sep-15 12:00N 39°43' W 075°31'0 0.0
2017-Sep-15 11:31N 39°43' W 075°31'0 0.0
2017-Sep-15 11:00N 39°43' W 075°31'0 0.0
2017-Sep-15 10:30N 39°43' W 075°31'0 0.0
2017-Sep-15 10:00N 39°43' W 075°31'0 0.0
2017-Sep-15 09:30N 39°43' W 075°31'0 0.0
2017-Sep-15 09:00N 39°43' W 075°31'0 0.0
2017-Sep-15 08:31N 39°43' W 075°31'0 0.0
2017-Sep-15 08:01N 39°43' W 075°31'0 0.0
2017-Sep-15 07:31N 39°43' W 075°31'0 0.0
2017-Sep-15 07:00N 39°43' W 075°31'0 0.0
2017-Sep-15 06:30N 39°43' W 075°31'0 0.0
2017-Sep-15 06:00N 39°43' W 075°31'0 0.0
2017-Sep-15 05:31N 39°43' W 075°31'0 0.0
2017-Sep-15 05:00N 39°43' W 075°31'0 0.0
2017-Sep-15 04:30N 39°43' W 075°31'0 0.0
2017-Sep-15 04:01N 39°43' W 075°31'0 0.0
2017-Sep-15 03:31N 39°43' W 075°31'0 0.0
2017-Sep-15 03:01N 39°43' W 075°31'2 3.8
2017-Sep-15 02:31N 39°41' W 075°31'510.4
2017-Sep-15 02:01N 39°37' W 075°34'2 3.6
2017-Sep-15 01:30N 39°35' W 075°35'1 1.5
2017-Sep-15 01:01N 39°35' W 075°35'1 2.7
2017-Sep-15 00:31N 39°36' W 075°34'4 9.0
2017-Sep-15 00:00N 39°40' W 075°32'510.4
2017-Sep-14 23:31N 39°45' W 075°29'4 8.5
2017-Sep-14 23:00N 39°48' W 075°25'0 0.5
2017-Sep-14 22:31N 39°48' W 075°25'0 0.2
2017-Sep-14 22:00N 39°48' W 075°25'4 8.5
2017-Sep-14 21:30N 39°45' W 075°29'3 5.2
2017-Sep-14 21:00N 39°43' W 075°31'0 0.0
2017-Sep-14 20:30N 39°43' W 075°31'0 0.0
2017-Sep-14 20:00N 39°43' W 075°31'0 0.0
2017-Sep-14 19:30N 39°43' W 075°31'0 0.0
2017-Sep-14 19:00N 39°43' W 075°31'0 0.0
2017-Sep-14 18:30N 39°43' W 075°31'0 0.0
2017-Sep-14 18:00N 39°43' W 075°31'0 0.0
2017-Sep-14 17:30N 39°43' W 075°31'0 0.0
2017-Sep-14 17:00N 39°43' W 075°31'0 0.0
2017-Sep-14 12:07N 39°43' W 075°31'0 0.0
2017-Sep-14 12:00N 39°43' W 075°31'0 0.0
2017-Sep-14 11:31N 39°43' W 075°31'0 0.0
2017-Sep-14 11:01N 39°43' W 075°31'0 0.0
2017-Sep-14 10:31N 39°43' W 075°31'0 0.0
2017-Sep-14 10:01N 39°43' W 075°31'0 0.0
2017-Sep-14 09:31N 39°43' W 075°31'0 0.0
2017-Sep-14 09:01N 39°43' W 075°31'0 0.0
2017-Sep-14 08:30N 39°43' W 075°31'0 0.0
2017-Sep-14 08:00N 39°43' W 075°31'0 0.0
2017-Sep-14 07:30N 39°43' W 075°31'0 0.0
2017-Sep-14 07:00N 39°43' W 075°31'0 0.0
2017-Sep-14 06:30N 39°43' W 075°31'0 0.0
2017-Sep-14 06:00N 39°43' W 075°31'0 0.0
2017-Sep-14 05:30N 39°43' W 075°31'0 0.0
2017-Sep-14 05:00N 39°43' W 075°31'0 0.0
2017-Sep-14 04:31N 39°43' W 075°31'1 2.3
2017-Sep-14 04:01N 39°44' W 075°30'612.4
2017-Sep-14 03:30N 39°48' W 075°25'612.5
2017-Sep-14 03:01N 39°51' W 075°17'1 1.3
2017-Sep-14 02:30N 39°51' W 075°16'0 0.0
2017-Sep-14 02:00N 39°51' W 075°16'1 2.0
2017-Sep-14 01:30N 39°51' W 075°18'2 4.6
2017-Sep-14 01:00N 39°51' W 075°21'0 0.0
2017-Sep-14 00:31N 39°51' W 075°21'2 3.8
2017-Sep-14 00:00N 39°50' W 075°22'2 4.9
2017-Sep-13 23:31N 39°48' W 075°25'0 0.0
2017-Sep-13 23:01N 39°48' W 075°25'1 1.3
2017-Sep-13 22:30N 39°49' W 075°24'0 0.0
2017-Sep-13 22:01N 39°49' W 075°24'0 0.2
2017-Sep-13 21:31N 39°49' W 075°24'1 1.2
2017-Sep-13 21:00N 39°48' W 075°25'1 1.9
2017-Sep-13 20:31N 39°48' W 075°26'1 1.8
2017-Sep-13 20:00N 39°48' W 075°25'0 0.0
2017-Sep-13 19:30N 39°48' W 075°25'0 0.0
2017-Sep-13 19:01N 39°48' W 075°25'4 8.8
2017-Sep-13 18:31N 39°51' W 075°20'3 6.1
2017-Sep-13 18:00N 39°51' W 075°16'1 2.1
2017-Sep-13 17:30N 39°51' W 075°15'4 7.1
2017-Sep-13 17:01N 39°53' W 075°11'0 0.0
2017-Sep-13 16:31N 39°53' W 075°11'0 0.0
2017-Sep-13 16:01N 39°53' W 075°11'2 3.4
2017-Sep-13 15:30N 39°53' W 075°09'5 9.2
2017-Sep-13 15:01N 39°57' W 075°08'510.8
2017-Sep-13 14:30N 40°01' W 075°02'611.3
2017-Sep-13 14:00N 40°04' W 074°56'5 9.9
2017-Sep-13 13:30N 40°06' W 074°50'4 8.3
2017-Sep-13 13:00N 40°08' W 074°46'1 1.0
2017-Sep-13 12:30N 40°08' W 074°45'0 0.0
2017-Sep-13 12:00N 40°08' W 074°45'1 2.1
2017-Sep-13 11:30N 40°08' W 074°46'4 7.2
2017-Sep-13 11:00N 40°06' W 074°50'4 9.1
2017-Sep-13 10:30N 40°04' W 074°56'510.4
2017-Sep-13 10:00N 40°01' W 075°01'5 9.6
2017-Sep-13 09:30N 39°58' W 075°06'4 8.3
2017-Sep-13 09:00N 39°54' W 075°08'3 5.5
2017-Sep-13 08:31N 39°53' W 075°11'0 0.0
2017-Sep-13 08:01N 39°53' W 075°11'0 0.0
2017-Sep-13 07:30N 39°53' W 075°11'0 0.0
2017-Sep-13 07:00N 39°53' W 075°11'0 0.0
2017-Sep-13 06:30N 39°53' W 075°11'0 0.0
2017-Sep-13 06:00N 39°53' W 075°11'0 0.0
2017-Sep-13 05:30N 39°53' W 075°11'0 0.0
2017-Sep-13 05:00N 39°53' W 075°11'0 0.0
2017-Sep-13 04:30N 39°53' W 075°11'0 0.0
2017-Sep-13 04:00N 39°53' W 075°11'0 0.0
2017-Sep-13 03:31N 39°53' W 075°11'0 0.0
2017-Sep-13 03:00N 39°53' W 075°11'0 0.0
2017-Sep-13 02:30N 39°53' W 075°11'0 0.0
2017-Sep-13 02:00N 39°53' W 075°11'0 0.0
2017-Sep-13 01:30N 39°53' W 075°11'0 0.0
2017-Sep-13 01:01N 39°53' W 075°11'0 0.0
2017-Sep-13 00:30N 39°53' W 075°11'0 0.0
2017-Sep-13 00:00N 39°53' W 075°11'0 0.0
2017-Sep-12 23:30N 39°53' W 075°11'0 0.0
2017-Sep-12 23:00N 39°53' W 075°11'0 0.0
2017-Sep-12 22:30N 39°53' W 075°11'0 0.0
2017-Sep-12 22:01N 39°53' W 075°11'0 0.0
2017-Sep-12 21:31N 39°53' W 075°11'0 0.0
2017-Sep-12 21:01N 39°53' W 075°11'0 0.0
2017-Sep-12 20:30N 39°53' W 075°11'0 0.0
2017-Sep-12 20:01N 39°53' W 075°11'0 0.0
2017-Sep-12 19:31N 39°53' W 075°11'0 0.0
2017-Sep-12 19:01N 39°53' W 075°11'0 0.0
2017-Sep-12 18:31N 39°53' W 075°11'0 0.0
2017-Sep-12 18:00N 39°53' W 075°11'0 0.0
2017-Sep-12 17:30N 39°53' W 075°11'0 0.1
2017-Sep-12 17:00N 39°53' W 075°11'0 0.1
2017-Sep-12 16:31N 39°53' W 075°11'0 0.0
2017-Sep-12 16:01N 39°53' W 075°11'0 0.0
2017-Sep-12 15:30N 39°53' W 075°11'0 0.0
2017-Sep-12 15:00N 39°53' W 075°11'0 0.0
2017-Sep-12 14:30N 39°53' W 075°11'0 0.0
2017-Sep-12 14:00N 39°53' W 075°11'0 0.0
2017-Sep-12 13:30N 39°53' W 075°11'0 0.0
2017-Sep-12 13:00N 39°53' W 075°11'0 0.0
2017-Sep-12 12:30N 39°53' W 075°11'0 0.0
2017-Sep-12 09:15N 39°53' W 075°11'0 0.0
2017-Sep-12 09:00N 39°53' W 075°11'0 0.0
2017-Sep-12 08:30N 39°53' W 075°11'0 0.0
2017-Sep-12 08:00N 39°53' W 075°11'0 0.0
2017-Sep-12 07:30N 39°53' W 075°11'0 0.0
2017-Sep-12 07:00N 39°53' W 075°11'0 0.0
2017-Sep-12 06:30N 39°53' W 075°11'0 0.0
2017-Sep-12 06:00N 39°53' W 075°11'0 0.0
2017-Sep-12 05:30N 39°53' W 075°11'0 0.0
2017-Sep-12 05:00N 39°53' W 075°11'0 0.0
2017-Sep-12 04:30N 39°53' W 075°11'0 0.0
2017-Sep-12 04:01N 39°53' W 075°11'0 0.0
2017-Sep-12 03:31N 39°53' W 075°11'0 0.0
2017-Sep-12 03:01N 39°53' W 075°11'0 0.1
2017-Sep-12 02:31N 39°53' W 075°11'0 0.0
2017-Sep-12 02:01N 39°53' W 075°11'0 0.0
2017-Sep-12 01:30N 39°53' W 075°11'0 0.0
2017-Sep-12 01:01N 39°53' W 075°11'0 0.0
2017-Sep-12 00:30N 39°53' W 075°11'0 0.0
2017-Sep-12 00:00N 39°53' W 075°11'0 0.0
2017-Sep-11 23:30N 39°53' W 075°11'0 0.0
2017-Sep-11 23:00N 39°53' W 075°11'0 0.0
2017-Sep-11 22:30N 39°53' W 075°11'0 0.0
2017-Sep-11 22:01N 39°53' W 075°11'0 0.0
2017-Sep-11 21:31N 39°53' W 075°11'0 0.0
2017-Sep-11 21:00N 39°53' W 075°11'4 8.1
2017-Sep-11 20:30N 39°51' W 075°16'611.3
2017-Sep-11 20:00N 39°50' W 075°23'3 5.7
2017-Sep-11 19:30N 39°48' W 075°26'0 0.0
2017-Sep-11 19:00N 39°48' W 075°26'0 0.0
2017-Sep-11 18:30N 39°48' W 075°26'0 0.0
2017-Sep-11 18:00N 39°48' W 075°26'0 0.0
2017-Sep-11 17:30N 39°48' W 075°26'0 0.0
2017-Sep-11 17:00N 39°48' W 075°26'0 0.0
2017-Sep-11 16:30N 39°48' W 075°26'0 0.0
2017-Sep-11 16:00N 39°48' W 075°26'1 1.4
2017-Sep-11 15:30N 39°48' W 075°25'0 0.1
2017-Sep-11 15:00N 39°48' W 075°25'2 4.5
2017-Sep-11 14:30N 39°47' W 075°27'5 9.6
2017-Sep-11 14:01N 39°43' W 075°31'0 0.6
2017-Sep-11 13:30N 39°43' W 075°31'0 0.0
2017-Sep-11 13:01N 39°43' W 075°31'0 0.0
2017-Sep-11 12:30N 39°43' W 075°31'0 0.0
2017-Sep-11 12:01N 39°43' W 075°31'0 0.0
2017-Sep-11 11:30N 39°43' W 075°31'0 0.0
2017-Sep-11 11:00N 39°43' W 075°31'0 0.5
2017-Sep-11 10:31N 39°43' W 075°31'0 0.6
2017-Sep-11 10:00N 39°43' W 075°31'1 2.1
2017-Sep-11 09:30N 39°42' W 075°31'1 2.0
2017-Sep-11 09:00N 39°43' W 075°31'0 0.0
2017-Sep-11 08:31N 39°43' W 075°31'0 0.0
2017-Sep-11 08:01N 39°43' W 075°31'0 0.0
2017-Sep-11 07:30N 39°43' W 075°31'0 0.1
2017-Sep-11 07:00N 39°43' W 075°31'0 0.1
2017-Sep-11 06:30N 39°43' W 075°31'0 0.0
2017-Sep-11 06:01N 39°43' W 075°31'0 0.0
2017-Sep-11 05:30N 39°43' W 075°31'0 0.0
2017-Sep-11 05:01N 39°43' W 075°31'  
Track history (hours):
 
Tides and Currents Weather Stations Pressure Air Temp Water Temp Dewpoint Dewpoint Depression Visibility Wind Speed Wind Dir Waves Ship Positions

Lindsey

Owner: Wilmington Tug, Inc., New Castle, DE. More information available from US FCC via Universal Licensing System and Coast Guard Vessel Documentation Center.

Last reported at 2017-Sep-21 05:00 UTC. Time now 2017-Sep-21 05:08 UTC.
Position N 39°43' W 075°31'.

Length 20 m; draft 3.9 m.

Type: Tug. MMSI: 367012640.

Date/timePositionNaut miles runAvg speedWind from/ knotsBaromVisibWave heightAir tempDewpointWater temp
2017-Sep-21 05:00N 39°43' W 075°31'0 0.0
2017-Sep-21 04:31N 39°43' W 075°31'0 0.0
2017-Sep-21 04:01N 39°43' W 075°31'0 0.0
2017-Sep-21 03:31N 39°43' W 075°31'0 0.0
2017-Sep-21 03:01N 39°43' W 075°31'0 0.0
2017-Sep-21 02:31N 39°43' W 075°31'0 0.0
2017-Sep-21 02:01N 39°43' W 075°31'0 0.0
2017-Sep-21 01:30N 39°43' W 075°31'0 1.0
2017-Sep-21 01:01N 39°43' W 075°31'611.6
2017-Sep-21 00:31N 39°38' W 075°36'3 5.8
2017-Sep-21 00:00N 39°35' W 075°36'0 0.0
2017-Sep-20 23:30N 39°35' W 075°36'0 0.3
2017-Sep-20 23:01N 39°35' W 075°35'0 0.1
2017-Sep-20 22:31N 39°35' W 075°35'0 0.0
2017-Sep-20 22:01N 39°35' W 075°35'0 0.0
2017-Sep-20 21:31N 39°35' W 075°35'0 0.0
2017-Sep-20 21:00N 39°35' W 075°35'0 0.0
2017-Sep-20 20:31N 39°35' W 075°35'0 0.0
2017-Sep-20 20:01N 39°35' W 075°35'0 0.0
2017-Sep-20 19:31N 39°35' W 075°35'0 0.0
2017-Sep-20 19:01N 39°35' W 075°35'0 0.0
2017-Sep-20 18:30N 39°35' W 075°35'0 0.0
2017-Sep-20 18:00N 39°35' W 075°35'1 2.9
2017-Sep-20 17:31N 39°34' W 075°34'1 1.2
2017-Sep-20 17:00N 39°35' W 075°33'3 5.9
2017-Sep-20 16:31N 39°38' W 075°35'3 5.2
2017-Sep-20 16:01N 39°39' W 075°33'3 6.0
2017-Sep-20 15:31N 39°42' W 075°31'1 1.7
2017-Sep-20 15:00N 39°43' W 075°31'0 0.0
2017-Sep-20 14:01N 39°43' W 075°31'0 0.0
2017-Sep-20 13:31N 39°43' W 075°31'0 0.0
2017-Sep-20 13:01N 39°43' W 075°31'0 0.0
2017-Sep-20 12:30N 39°43' W 075°31'0 0.0
2017-Sep-20 12:00N 39°43' W 075°31'0 0.0
2017-Sep-20 11:30N 39°43' W 075°31'0 0.0
2017-Sep-20 11:01N 39°43' W 075°31'0 0.0
2017-Sep-20 10:31N 39°43' W 075°31'0 0.0
2017-Sep-20 10:00N 39°43' W 075°31'0 0.0
2017-Sep-20 09:31N 39°43' W 075°31'0 0.0
2017-Sep-20 09:01N 39°43' W 075°31'0 0.0
2017-Sep-20 08:30N 39°43' W 075°31'0 0.0
2017-Sep-20 08:00N 39°43' W 075°31'0 0.0
2017-Sep-20 07:30N 39°43' W 075°31'0 0.0
2017-Sep-20 07:01N 39°43' W 075°31'0 0.0
2017-Sep-20 06:30N 39°43' W 075°31'0 0.4
2017-Sep-20 06:01N 39°43' W 075°31'1 1.8
2017-Sep-20 05:30N 39°42' W 075°31'0 0.8
2017-Sep-20 05:01N 39°43' W 075°30'1 1.7
2017-Sep-20 04:30N 39°43' W 075°31'0 0.0
2017-Sep-20 04:01N 39°43' W 075°31'0 0.0
2017-Sep-20 03:31N 39°43' W 075°31'0 0.0
2017-Sep-20 03:01N 39°43' W 075°31'0 0.0
2017-Sep-20 02:31N 39°43' W 075°31'0 0.0
2017-Sep-20 02:01N 39°43' W 075°31'1 1.7
2017-Sep-20 01:30N 39°43' W 075°31'1 1.4
2017-Sep-20 01:01N 39°43' W 075°31'0 0.3
2017-Sep-20 00:31N 39°43' W 075°31'0 0.0
2017-Sep-20 00:01N 39°43' W 075°31'0 0.0
2017-Sep-19 23:30N 39°43' W 075°31'0 0.0
2017-Sep-19 23:01N 39°43' W 075°31'0 0.0
2017-Sep-19 22:31N 39°43' W 075°31'0 0.0
2017-Sep-19 22:00N 39°43' W 075°31'0 0.0
2017-Sep-19 21:31N 39°43' W 075°31'0 0.0
2017-Sep-19 21:00N 39°43' W 075°31'0 0.0
2017-Sep-19 20:31N 39°43' W 075°31'0 0.0
2017-Sep-19 20:00N 39°43' W 075°31'0 0.0
2017-Sep-19 19:31N 39°43' W 075°31'0 0.0
2017-Sep-19 19:00N 39°43' W 075°31'0 0.0
2017-Sep-19 18:31N 39°43' W 075°31'0 0.0
2017-Sep-19 18:00N 39°43' W 075°31'0 0.0
2017-Sep-19 17:30N 39°43' W 075°31'0 0.0
2017-Sep-19 17:01N 39°43' W 075°31'0 0.0
2017-Sep-19 16:30N 39°43' W 075°31'0 0.0
2017-Sep-19 16:01N 39°43' W 075°31'0 0.0
2017-Sep-19 15:30N 39°43' W 075°31'3 5.1
2017-Sep-19 15:00N 39°41' W 075°32'611.9
2017-Sep-19 14:31N 39°35' W 075°33'2 3.3
2017-Sep-19 14:01N 39°35' W 075°35'0 0.3
2017-Sep-19 13:31N 39°35' W 075°35'0 0.6
2017-Sep-19 13:01N 39°35' W 075°36'0 0.0
2017-Sep-19 12:31N 39°35' W 075°36'0 0.0
2017-Sep-19 12:01N 39°35' W 075°36'0 0.0
2017-Sep-19 11:31N 39°35' W 075°36'0 0.0
2017-Sep-19 11:01N 39°35' W 075°36'0 0.0
2017-Sep-19 10:31N 39°35' W 075°36'0 0.0
2017-Sep-19 10:00N 39°35' W 075°36'0 0.0
2017-Sep-19 09:31N 39°35' W 075°36'0 0.0
2017-Sep-19 09:00N 39°35' W 075°36'0 0.0
2017-Sep-19 08:30N 39°35' W 075°36'0 0.0
2017-Sep-19 08:00N 39°35' W 075°36'0 0.6
2017-Sep-19 07:30N 39°35' W 075°35'0 0.0
2017-Sep-19 07:01N 39°35' W 075°35'0 0.3
2017-Sep-19 06:31N 39°35' W 075°35'0 0.0
2017-Sep-19 06:00N 39°35' W 075°35'0 0.3
2017-Sep-19 05:30N 39°35' W 075°36'0 0.0
2017-Sep-19 05:00N 39°35' W 075°36'0 0.0
2017-Sep-19 04:30N 39°35' W 075°36'0 0.0
2017-Sep-19 04:00N 39°35' W 075°36'0 0.9
2017-Sep-19 03:30N 39°36' W 075°36'5 9.4
2017-Sep-19 03:00N 39°40' W 075°33'5 9.9
2017-Sep-19 02:31N 39°44' W 075°30'5 9.4
2017-Sep-19 02:00N 39°48' W 075°26'3 6.4
2017-Sep-19 01:31N 39°50' W 075°23'5 9.0
2017-Sep-19 01:00N 39°51' W 075°17'5 9.6
2017-Sep-19 00:31N 39°53' W 075°12'0 0.2
2017-Sep-19 00:00N 39°53' W 075°12'0 0.0
2017-Sep-18 23:30N 39°53' W 075°12'0 0.0
2017-Sep-18 23:00N 39°53' W 075°12'0 0.0
2017-Sep-18 22:31N 39°53' W 075°12'0 0.1
2017-Sep-18 22:00N 39°54' W 075°12'1 1.2
2017-Sep-18 21:30N 39°53' W 075°11'4 8.1
2017-Sep-18 21:01N 39°56' W 075°08'510.2
2017-Sep-18 20:30N 39°60' W 075°03'5 9.9
2017-Sep-18 20:00N 40°03' W 074°58'510.3
2017-Sep-18 19:30N 40°05' W 074°52'4 7.6
2017-Sep-18 19:00N 40°08' W 074°49'3 2.5
2017-Sep-18 17:53N 40°08' W 074°45'3 8.5
2017-Sep-18 17:30N 40°08' W 074°49'5 9.3
2017-Sep-18 17:00N 40°04' W 074°54'5 9.4
2017-Sep-18 16:30N 40°02' W 074°59'611.9
2017-Sep-18 16:01N 39°59' W 075°05'4 8.9
2017-Sep-18 15:30N 39°55' W 075°08'3 5.8
2017-Sep-18 15:00N 39°53' W 075°11'0 0.0
2017-Sep-18 14:31N 39°53' W 075°11'0 0.0
2017-Sep-18 14:00N 39°53' W 075°11'0 0.0
2017-Sep-18 13:30N 39°53' W 075°11'0 0.0
2017-Sep-18 13:01N 39°53' W 075°11'0 0.0
2017-Sep-18 12:30N 39°53' W 075°11'0 0.0
2017-Sep-18 12:00N 39°53' W 075°11'0 0.0
2017-Sep-18 11:30N 39°53' W 075°11'0 0.0
2017-Sep-18 11:00N 39°53' W 075°11'0 0.0
2017-Sep-18 10:30N 39°53' W 075°11'0 0.4
2017-Sep-18 10:01N 39°53' W 075°11'0 0.4
2017-Sep-18 09:30N 39°53' W 075°11'0 0.0
2017-Sep-18 09:00N 39°53' W 075°11'0 0.0
2017-Sep-18 08:30N 39°53' W 075°11'0 0.0
2017-Sep-18 08:00N 39°53' W 075°11'0 0.0
2017-Sep-18 07:30N 39°53' W 075°11'0 0.0
2017-Sep-18 07:00N 39°53' W 075°11'0 0.0
2017-Sep-18 06:30N 39°53' W 075°11'0 0.0
2017-Sep-18 06:00N 39°53' W 075°11'0 0.0
2017-Sep-18 05:30N 39°53' W 075°11'0 0.0
2017-Sep-18 05:00N 39°53' W 075°11'0 0.0
2017-Sep-18 04:30N 39°53' W 075°11'0 0.0
2017-Sep-18 04:00N 39°53' W 075°11'0 0.0
2017-Sep-18 03:30N 39°53' W 075°11'0 0.0
2017-Sep-18 03:00N 39°53' W 075°11'4 8.2
2017-Sep-18 02:31N 39°51' W 075°16'612.0
2017-Sep-18 02:00N 39°49' W 075°23'2 3.3
2017-Sep-18 01:30N 39°48' W 075°25'0 0.0
2017-Sep-18 01:00N 39°48' W 075°25'0 0.4
2017-Sep-18 00:31N 39°48' W 075°25'1 2.7
2017-Sep-18 00:00N 39°48' W 075°27'1 1.5
2017-Sep-17 23:31N 39°48' W 075°26'0 0.0
2017-Sep-17 23:00N 39°48' W 075°26'0 0.0
2017-Sep-17 22:30N 39°48' W 075°26'2 3.6
2017-Sep-17 22:00N 39°49' W 075°24'612.2
2017-Sep-17 21:30N 39°51' W 075°16'611.3
2017-Sep-17 21:00N 39°53' W 075°09'5 9.6
2017-Sep-17 20:30N 39°58' W 075°08'3 6.2
2017-Sep-17 20:00N 39°59' W 075°04'1 2.0
2017-Sep-17 19:30N 39°59' W 075°05'0 0.0
2017-Sep-17 19:00N 39°59' W 075°05'0 0.0
2017-Sep-17 18:30N 39°59' W 075°05'0 0.0
2017-Sep-17 18:00N 39°59' W 075°05'0 0.0
2017-Sep-17 17:30N 39°59' W 075°05'2 3.9
2017-Sep-17 17:00N 39°58' W 075°08'4 8.3
2017-Sep-17 16:30N 39°54' W 075°08'3 6.6
2017-Sep-17 16:00N 39°52' W 075°12'5 9.7
2017-Sep-17 15:30N 39°51' W 075°18'612.0
2017-Sep-17 15:00N 39°48' W 075°25'611.6
2017-Sep-17 14:30N 39°44' W 075°30'1 2.1
2017-Sep-17 14:00N 39°43' W 075°31'0 0.0
2017-Sep-17 13:31N 39°43' W 075°31'0 0.0
2017-Sep-17 13:00N 39°43' W 075°31'0 0.0
2017-Sep-17 12:31N 39°43' W 075°31'0 0.0
2017-Sep-17 12:00N 39°43' W 075°31'0 0.0
2017-Sep-17 11:30N 39°43' W 075°31'0 0.0
2017-Sep-17 11:01N 39°43' W 075°31'0 0.0
2017-Sep-17 10:30N 39°43' W 075°31'0 0.0
2017-Sep-17 10:00N 39°43' W 075°31'0 0.0
2017-Sep-17 09:30N 39°43' W 075°31'0 0.0
2017-Sep-17 09:00N 39°43' W 075°31'0 0.0
2017-Sep-17 08:30N 39°43' W 075°31'0 0.0
2017-Sep-17 08:00N 39°43' W 075°31'0 0.0
2017-Sep-17 07:30N 39°43' W 075°31'0 0.0
2017-Sep-17 07:00N 39°43' W 075°31'0 0.0
2017-Sep-17 06:31N 39°43' W 075°31'0 0.0
2017-Sep-17 06:01N 39°43' W 075°31'0 0.0
2017-Sep-17 05:31N 39°43' W 075°31'0 0.0
2017-Sep-17 05:00N 39°43' W 075°31'0 0.0
2017-Sep-17 04:31N 39°43' W 075°31'0 0.0
2017-Sep-17 04:00N 39°43' W 075°31'0 0.0
2017-Sep-17 03:30N 39°43' W 075°31'0 0.0
2017-Sep-17 03:00N 39°43' W 075°31'0 0.0
2017-Sep-17 02:31N 39°43' W 075°31'0 0.0
2017-Sep-17 02:01N 39°43' W 075°31'0 0.0
2017-Sep-17 01:30N 39°43' W 075°31'0 0.0
2017-Sep-17 01:01N 39°43' W 075°31'0 0.0
2017-Sep-17 00:30N 39°43' W 075°31'0 0.0
2017-Sep-17 00:00N 39°43' W 075°31'0 0.0
2017-Sep-16 23:30N 39°43' W 075°31'0 0.0
2017-Sep-16 23:00N 39°43' W 075°31'0 0.0
2017-Sep-16 22:30N 39°43' W 075°31'0 0.0
2017-Sep-16 22:00N 39°43' W 075°31'0 0.0
2017-Sep-16 21:30N 39°43' W 075°31'0 0.0
2017-Sep-16 21:00N 39°43' W 075°31'0 0.0
2017-Sep-16 20:30N 39°43' W 075°31'2 3.7
2017-Sep-16 20:00N 39°45' W 075°30'510.7
2017-Sep-16 19:31N 39°48' W 075°25'0 0.3
2017-Sep-16 19:01N 39°48' W 075°25'0 0.4
2017-Sep-16 18:31N 39°48' W 075°25'0 0.3
2017-Sep-16 18:00N 39°48' W 075°24'2 3.9
2017-Sep-16 17:30N 39°47' W 075°27'5 9.4
2017-Sep-16 17:01N 39°44' W 075°30'5 9.9
2017-Sep-16 16:31N 39°39' W 075°33'4 8.6
2017-Sep-16 16:01N 39°36' W 075°36'1 1.3
2017-Sep-16 15:31N 39°35' W 075°35'0 0.1
2017-Sep-16 15:00N 39°35' W 075°35'2 3.1
2017-Sep-16 14:31N 39°34' W 075°34'1 1.6
2017-Sep-16 14:00N 39°35' W 075°33'1 2.8
2017-Sep-16 13:30N 39°34' W 075°33'2 4.9
2017-Sep-16 13:00N 39°35' W 075°35'0 0.4
2017-Sep-16 12:30N 39°35' W 075°35'0 0.2
2017-Sep-16 12:01N 39°35' W 075°35'0 0.0
2017-Sep-16 11:30N 39°35' W 075°35'0 0.0
2017-Sep-16 11:00N 39°35' W 075°35'0 0.0
2017-Sep-16 10:31N 39°35' W 075°35'0 0.0
2017-Sep-16 10:00N 39°35' W 075°35'0 0.0
2017-Sep-16 09:30N 39°35' W 075°35'0 0.0
2017-Sep-16 09:01N 39°35' W 075°35'0 0.0
2017-Sep-16 08:30N 39°35' W 075°35'0 0.0
2017-Sep-16 08:00N 39°35' W 075°35'0 0.0
2017-Sep-16 07:31N 39°35' W 075°35'0 0.0
2017-Sep-16 07:01N 39°35' W 075°35'0 0.0
2017-Sep-16 06:30N 39°35' W 075°35'0 0.0
2017-Sep-16 06:01N 39°35' W 075°35'0 0.0
2017-Sep-16 05:31N 39°35' W 075°35'0 0.0
2017-Sep-16 05:01N 39°35' W 075°35'2 3.1
2017-Sep-16 04:31N 39°34' W 075°34'1 1.5
2017-Sep-16 04:01N 39°35' W 075°34'1 1.7
2017-Sep-16 03:31N 39°35' W 075°35'0 0.0
2017-Sep-16 03:00N 39°35' W 075°35'0 0.5
2017-Sep-16 02:30N 39°35' W 075°36'0 0.3
2017-Sep-16 02:00N 39°35' W 075°35'2 3.1
2017-Sep-16 01:30N 39°34' W 075°34'1 1.9
2017-Sep-16 01:00N 39°35' W 075°34'3 6.1
2017-Sep-16 00:30N 39°38' W 075°34'3 6.8
2017-Sep-16 00:01N 39°41' W 075°31'2 4.4
2017-Sep-15 23:31N 39°43' W 075°31'0 0.0
2017-Sep-15 23:00N 39°43' W 075°31'0 0.0
2017-Sep-15 22:31N 39°43' W 075°31'0 0.0
2017-Sep-15 22:01N 39°43' W 075°31'0 0.0
2017-Sep-15 21:31N 39°43' W 075°31'0 0.0
2017-Sep-15 21:01N 39°43' W 075°31'0 0.0
2017-Sep-15 20:31N 39°43' W 075°31'0 0.0
2017-Sep-15 20:01N 39°43' W 075°31'0 0.0
2017-Sep-15 19:31N 39°43' W 075°31'0 0.0
2017-Sep-15 19:01N 39°43' W 075°31'0 0.0
2017-Sep-15 18:31N 39°43' W 075°31'0 0.0
2017-Sep-15 18:01N 39°43' W 075°31'0 0.3
2017-Sep-15 17:31N 39°43' W 075°31'0 0.3
2017-Sep-15 17:01N 39°43' W 075°31'0 0.0
2017-Sep-15 16:31N 39°43' W 075°31'0 0.0
2017-Sep-15 16:01N 39°43' W 075°31'0 0.0
2017-Sep-15 15:30N 39°43' W 075°31'0 0.0
2017-Sep-15 15:00N 39°43' W 075°31'0 0.0
2017-Sep-15 14:30N 39°43' W 075°31'0 0.0
2017-Sep-15 14:00N 39°43' W 075°31'0 0.0
2017-Sep-15 13:31N 39°43' W 075°31'0 0.0
2017-Sep-15 13:00N 39°43' W 075°31'0 0.0
2017-Sep-15 12:30N 39°43' W 075°31'0 0.0
2017-Sep-15 12:00N 39°43' W 075°31'0 0.0
2017-Sep-15 11:31N 39°43' W 075°31'0 0.0
2017-Sep-15 11:00N 39°43' W 075°31'0 0.0
2017-Sep-15 10:30N 39°43' W 075°31'0 0.0
2017-Sep-15 10:00N 39°43' W 075°31'0 0.0
2017-Sep-15 09:30N 39°43' W 075°31'0 0.0
2017-Sep-15 09:00N 39°43' W 075°31'0 0.0
2017-Sep-15 08:31N 39°43' W 075°31'0 0.0
2017-Sep-15 08:01N 39°43' W 075°31'0 0.0
2017-Sep-15 07:31N 39°43' W 075°31'0 0.0
2017-Sep-15 07:00N 39°43' W 075°31'0 0.0
2017-Sep-15 06:30N 39°43' W 075°31'0 0.0
2017-Sep-15 06:00N 39°43' W 075°31'0 0.0
2017-Sep-15 05:31N 39°43' W 075°31'0 0.0
2017-Sep-15 05:00N 39°43' W 075°31'0 0.0
2017-Sep-15 04:30N 39°43' W 075°31'0 0.0
2017-Sep-15 04:01N 39°43' W 075°31'0 0.0
2017-Sep-15 03:31N 39°43' W 075°31'0 0.0
2017-Sep-15 03:01N 39°43' W 075°31'2 3.8
2017-Sep-15 02:31N 39°41' W 075°31'510.4
2017-Sep-15 02:01N 39°37' W 075°34'2 3.6
2017-Sep-15 01:30N 39°35' W 075°35'1 1.5
2017-Sep-15 01:01N 39°35' W 075°35'1 2.7
2017-Sep-15 00:31N 39°36' W 075°34'4 9.0
2017-Sep-15 00:00N 39°40' W 075°32'510.4
2017-Sep-14 23:31N 39°45' W 075°29'4 8.5
2017-Sep-14 23:00N 39°48' W 075°25'0 0.5
2017-Sep-14 22:31N 39°48' W 075°25'0 0.2
2017-Sep-14 22:00N 39°48' W 075°25'4 8.5
2017-Sep-14 21:30N 39°45' W 075°29'3 5.2
2017-Sep-14 21:00N 39°43' W 075°31'0 0.0
2017-Sep-14 20:30N 39°43' W 075°31'0 0.0
2017-Sep-14 20:00N 39°43' W 075°31'0 0.0
2017-Sep-14 19:30N 39°43' W 075°31'0 0.0
2017-Sep-14 19:00N 39°43' W 075°31'0 0.0
2017-Sep-14 18:30N 39°43' W 075°31'0 0.0
2017-Sep-14 18:00N 39°43' W 075°31'0 0.0
2017-Sep-14 17:30N 39°43' W 075°31'0 0.0
2017-Sep-14 17:00N 39°43' W 075°31'0 0.0
2017-Sep-14 12:07N 39°43' W 075°31'0 0.0
2017-Sep-14 12:00N 39°43' W 075°31'0 0.0
2017-Sep-14 11:31N 39°43' W 075°31'0 0.0
2017-Sep-14 11:01N 39°43' W 075°31'0 0.0
2017-Sep-14 10:31N 39°43' W 075°31'0 0.0
2017-Sep-14 10:01N 39°43' W 075°31'0 0.0
2017-Sep-14 09:31N 39°43' W 075°31'0 0.0
2017-Sep-14 09:01N 39°43' W 075°31'0 0.0
2017-Sep-14 08:30N 39°43' W 075°31'0 0.0
2017-Sep-14 08:00N 39°43' W 075°31'0 0.0
2017-Sep-14 07:30N 39°43' W 075°31'0 0.0
2017-Sep-14 07:00N 39°43' W 075°31'0 0.0
2017-Sep-14 06:30N 39°43' W 075°31'0 0.0
2017-Sep-14 06:00N 39°43' W 075°31'0 0.0
2017-Sep-14 05:30N 39°43' W 075°31'0 0.0
2017-Sep-14 05:00N 39°43' W 075°31'0 0.0
2017-Sep-14 04:31N 39°43' W 075°31'1 2.3
2017-Sep-14 04:01N 39°44' W 075°30'612.4
2017-Sep-14 03:30N 39°48' W 075°25'612.5
2017-Sep-14 03:01N 39°51' W 075°17'1 1.3
2017-Sep-14 02:30N 39°51' W 075°16'0 0.0
2017-Sep-14 02:00N 39°51' W 075°16'1 2.0
2017-Sep-14 01:30N 39°51' W 075°18'2 4.6
2017-Sep-14 01:00N 39°51' W 075°21'0 0.0
2017-Sep-14 00:31N 39°51' W 075°21'2 3.8
2017-Sep-14 00:00N 39°50' W 075°22'2 4.9
2017-Sep-13 23:31N 39°48' W 075°25'0 0.0
2017-Sep-13 23:01N 39°48' W 075°25'1 1.3
2017-Sep-13 22:30N 39°49' W 075°24'0 0.0
2017-Sep-13 22:01N 39°49' W 075°24'0 0.2
2017-Sep-13 21:31N 39°49' W 075°24'1 1.2
2017-Sep-13 21:00N 39°48' W 075°25'1 1.9
2017-Sep-13 20:31N 39°48' W 075°26'1 1.8
2017-Sep-13 20:00N 39°48' W 075°25'0 0.0
2017-Sep-13 19:30N 39°48' W 075°25'0 0.0
2017-Sep-13 19:01N 39°48' W 075°25'4 8.8
2017-Sep-13 18:31N 39°51' W 075°20'3 6.1
2017-Sep-13 18:00N 39°51' W 075°16'1 2.1
2017-Sep-13 17:30N 39°51' W 075°15'4 7.1
2017-Sep-13 17:01N 39°53' W 075°11'0 0.0
2017-Sep-13 16:31N 39°53' W 075°11'0 0.0
2017-Sep-13 16:01N 39°53' W 075°11'2 3.4
2017-Sep-13 15:30N 39°53' W 075°09'5 9.2
2017-Sep-13 15:01N 39°57' W 075°08'510.8
2017-Sep-13 14:30N 40°01' W 075°02'611.3
2017-Sep-13 14:00N 40°04' W 074°56'5 9.9
2017-Sep-13 13:30N 40°06' W 074°50'4 8.3
2017-Sep-13 13:00N 40°08' W 074°46'1 1.0
2017-Sep-13 12:30N 40°08' W 074°45'0 0.0
2017-Sep-13 12:00N 40°08' W 074°45'1 2.1
2017-Sep-13 11:30N 40°08' W 074°46'4 7.2
2017-Sep-13 11:00N 40°06' W 074°50'4 9.1
2017-Sep-13 10:30N 40°04' W 074°56'510.4
2017-Sep-13 10:00N 40°01' W 075°01'5 9.6
2017-Sep-13 09:30N 39°58' W 075°06'4 8.3
2017-Sep-13 09:00N 39°54' W 075°08'3 5.5
2017-Sep-13 08:31N 39°53' W 075°11'0 0.0
2017-Sep-13 08:01N 39°53' W 075°11'0 0.0
2017-Sep-13 07:30N 39°53' W 075°11'0 0.0
2017-Sep-13 07:00N 39°53' W 075°11'0 0.0
2017-Sep-13 06:30N 39°53' W 075°11'0 0.0
2017-Sep-13 06:00N 39°53' W 075°11'0 0.0
2017-Sep-13 05:30N 39°53' W 075°11'0 0.0
2017-Sep-13 05:00N 39°53' W 075°11'0 0.0
2017-Sep-13 04:30N 39°53' W 075°11'0 0.0
2017-Sep-13 04:00N 39°53' W 075°11'0 0.0
2017-Sep-13 03:31N 39°53' W 075°11'0 0.0
2017-Sep-13 03:00N 39°53' W 075°11'0 0.0
2017-Sep-13 02:30N 39°53' W 075°11'0 0.0
2017-Sep-13 02:00N 39°53' W 075°11'0 0.0
2017-Sep-13 01:30N 39°53' W 075°11'0 0.0
2017-Sep-13 01:01N 39°53' W 075°11'0 0.0
2017-Sep-13 00:30N 39°53' W 075°11'0 0.0
2017-Sep-13 00:00N 39°53' W 075°11'0 0.0
2017-Sep-12 23:30N 39°53' W 075°11'0 0.0
2017-Sep-12 23:00N 39°53' W 075°11'0 0.0
2017-Sep-12 22:30N 39°53' W 075°11'0 0.0
2017-Sep-12 22:01N 39°53' W 075°11'0 0.0
2017-Sep-12 21:31N 39°53' W 075°11'0 0.0
2017-Sep-12 21:01N 39°53' W 075°11'0 0.0
2017-Sep-12 20:30N 39°53' W 075°11'0 0.0
2017-Sep-12 20:01N 39°53' W 075°11'0 0.0
2017-Sep-12 19:31N 39°53' W 075°11'0 0.0
2017-Sep-12 19:01N 39°53' W 075°11'0 0.0
2017-Sep-12 18:31N 39°53' W 075°11'0 0.0
2017-Sep-12 18:00N 39°53' W 075°11'0 0.0
2017-Sep-12 17:30N 39°53' W 075°11'0 0.1
2017-Sep-12 17:00N 39°53' W 075°11'0 0.1
2017-Sep-12 16:31N 39°53' W 075°11'0 0.0
2017-Sep-12 16:01N 39°53' W 075°11'0 0.0
2017-Sep-12 15:30N 39°53' W 075°11'0 0.0
2017-Sep-12 15:00N 39°53' W 075°11'0 0.0
2017-Sep-12 14:30N 39°53' W 075°11'0 0.0
2017-Sep-12 14:00N 39°53' W 075°11'0 0.0
2017-Sep-12 13:30N 39°53' W 075°11'0 0.0
2017-Sep-12 13:00N 39°53' W 075°11'0 0.0
2017-Sep-12 12:30N 39°53' W 075°11'0 0.0
2017-Sep-12 09:15N 39°53' W 075°11'0 0.0
2017-Sep-12 09:00N 39°53' W 075°11'0 0.0
2017-Sep-12 08:30N 39°53' W 075°11'0 0.0
2017-Sep-12 08:00N 39°53' W 075°11'0 0.0
2017-Sep-12 07:30N 39°53' W 075°11'0 0.0
2017-Sep-12 07:00N 39°53' W 075°11'0 0.0
2017-Sep-12 06:30N 39°53' W 075°11'0 0.0
2017-Sep-12 06:00N 39°53' W 075°11'0 0.0
2017-Sep-12 05:30N 39°53' W 075°11'0 0.0
2017-Sep-12 05:00N 39°53' W 075°11'0 0.0
2017-Sep-12 04:30N 39°53' W 075°11'0 0.0
2017-Sep-12 04:01N 39°53' W 075°11'0 0.0
2017-Sep-12 03:31N 39°53' W 075°11'0 0.0
2017-Sep-12 03:01N 39°53' W 075°11'0 0.1
2017-Sep-12 02:31N 39°53' W 075°11'0 0.0
2017-Sep-12 02:01N 39°53' W 075°11'0 0.0
2017-Sep-12 01:30N 39°53' W 075°11'0 0.0
2017-Sep-12 01:01N 39°53' W 075°11'0 0.0
2017-Sep-12 00:30N 39°53' W 075°11'0 0.0
2017-Sep-12 00:00N 39°53' W 075°11'0 0.0
2017-Sep-11 23:30N 39°53' W 075°11'0 0.0
2017-Sep-11 23:00N 39°53' W 075°11'0 0.0
2017-Sep-11 22:30N 39°53' W 075°11'0 0.0
2017-Sep-11 22:01N 39°53' W 075°11'0 0.0
2017-Sep-11 21:31N 39°53' W 075°11'0 0.0
2017-Sep-11 21:00N 39°53' W 075°11'4 8.1
2017-Sep-11 20:30N 39°51' W 075°16'611.3
2017-Sep-11 20:00N 39°50' W 075°23'3 5.7
2017-Sep-11 19:30N 39°48' W 075°26'0 0.0
2017-Sep-11 19:00N 39°48' W 075°26'0 0.0
2017-Sep-11 18:30N 39°48' W 075°26'0 0.0
2017-Sep-11 18:00N 39°48' W 075°26'0 0.0
2017-Sep-11 17:30N 39°48' W 075°26'0 0.0
2017-Sep-11 17:00N 39°48' W 075°26'0 0.0
2017-Sep-11 16:30N 39°48' W 075°26'0 0.0
2017-Sep-11 16:00N 39°48' W 075°26'1 1.4
2017-Sep-11 15:30N 39°48' W 075°25'0 0.1
2017-Sep-11 15:00N 39°48' W 075°25'2 4.5
2017-Sep-11 14:30N 39°47' W 075°27'5 9.6
2017-Sep-11 14:01N 39°43' W 075°31'0 0.6
2017-Sep-11 13:30N 39°43' W 075°31'0 0.0
2017-Sep-11 13:01N 39°43' W 075°31'0 0.0
2017-Sep-11 12:30N 39°43' W 075°31'0 0.0
2017-Sep-11 12:01N 39°43' W 075°31'0 0.0
2017-Sep-11 11:30N 39°43' W 075°31'0 0.0
2017-Sep-11 11:00N 39°43' W 075°31'0 0.5
2017-Sep-11 10:31N 39°43' W 075°31'0 0.6
2017-Sep-11 10:00N 39°43' W 075°31'1 2.1
2017-Sep-11 09:30N 39°42' W 075°31'1 2.0
2017-Sep-11 09:00N 39°43' W 075°31'0 0.0
2017-Sep-11 08:31N 39°43' W 075°31'0 0.0
2017-Sep-11 08:01N 39°43' W 075°31'0 0.0
2017-Sep-11 07:30N 39°43' W 075°31'0 0.1
2017-Sep-11 07:00N 39°43' W 075°31'0 0.1
2017-Sep-11 06:30N 39°43' W 075°31'0 0.0
2017-Sep-11 06:01N 39°43' W 075°31'0 0.0
2017-Sep-11 05:30N 39°43' W 075°31'0 0.0
2017-Sep-11 05:01N 39°43' W 075°31'  

Dump ship's entire track history